createdAt,value
2018-05-26T00:02:08.279Z,11.17
2018-05-26T00:04:35.816Z,9.60
2018-05-26T00:07:03.382Z,7.30
2018-05-26T00:09:30.936Z,10.00
2018-05-26T00:11:58.510Z,10.90
2018-05-26T00:14:27.087Z,9.70
2018-05-26T00:16:54.745Z,9.40
2018-05-26T00:19:22.298Z,8.13
2018-05-26T00:21:49.864Z,8.03
2018-05-26T00:24:17.397Z,7.83
2018-05-26T00:26:44.985Z,7.50
2018-05-26T00:29:12.529Z,13.27
2018-05-26T00:31:40.091Z,9.67
2018-05-26T00:34:07.641Z,9.60
2018-05-26T00:36:35.212Z,10.00
2018-05-26T00:39:02.751Z,9.37
2018-05-26T00:41:31.066Z,7.83
2018-05-26T00:43:58.600Z,9.07
2018-05-26T00:46:26.137Z,7.73
2018-05-26T00:48:54.462Z,9.70
2018-05-26T00:51:22.011Z,10.97
2018-05-26T00:53:49.579Z,8.70
2018-05-26T00:56:17.111Z,13.10
2018-05-26T00:58:45.438Z,11.63
2018-05-26T01:01:13.883Z,10.50
2018-05-26T01:03:41.439Z,12.20
2018-05-26T01:06:08.996Z,11.50
2018-05-26T01:08:36.579Z,11.20
2018-05-26T01:11:04.128Z,12.40
2018-05-26T01:13:31.698Z,11.10
2018-05-26T01:15:59.247Z,8.87
2018-05-26T01:18:26.805Z,9.43
2018-05-26T01:20:54.349Z,11.87
2018-05-26T01:23:22.682Z,11.00
2018-05-26T01:25:50.224Z,11.10
2018-05-26T01:28:17.796Z,12.97
2018-05-26T01:30:45.340Z,14.43
2018-05-26T01:33:12.922Z,12.07
2018-05-26T01:35:40.474Z,13.90
2018-05-26T01:38:08.043Z,13.13
2018-05-26T01:40:35.589Z,12.53
2018-05-26T01:43:03.154Z,16.87
2018-05-26T01:45:30.697Z,16.67
2018-05-26T01:47:58.978Z,18.37
2018-05-26T01:50:26.526Z,18.73
2018-05-26T01:52:54.087Z,19.30
2018-05-26T01:55:21.632Z,19.23
2018-05-26T01:57:49.198Z,15.47
2018-05-26T02:00:16.740Z,20.13
2018-05-26T02:02:45.156Z,15.00
2018-05-26T02:05:13.294Z,21.00
2018-05-26T02:07:41.623Z,15.93
2018-05-26T02:10:09.165Z,14.90
2018-05-26T02:12:36.735Z,18.93
2018-05-26T02:15:04.286Z,15.33
2018-05-26T02:17:31.862Z,16.03
2018-05-26T02:19:59.404Z,16.80
2018-05-26T02:22:26.934Z,14.60
2018-05-26T02:24:55.261Z,13.90
2018-05-26T02:27:22.804Z,13.87
2018-05-26T02:29:50.447Z,17.27
2018-05-26T02:32:18.026Z,16.20
2018-05-26T02:34:45.598Z,16.80
2018-05-26T02:37:13.139Z,16.47
2018-05-26T02:39:40.703Z,16.00
2018-05-26T02:42:08.259Z,16.10
2018-05-26T02:44:35.827Z,15.70
2018-05-26T02:47:03.372Z,21.50
2018-05-26T02:49:30.943Z,16.83
2018-05-26T02:51:58.489Z,14.53
2018-05-26T02:54:26.056Z,18.30
2018-05-26T02:56:53.591Z,14.87
2018-05-26T02:59:21.921Z,14.30
2018-05-26T03:01:49.455Z,15.67
2018-05-26T03:04:22.784Z,19.50
2018-05-26T03:06:55.951Z,15.70
2018-05-26T03:09:29.216Z,12.83
2018-05-26T03:12:03.287Z,15.57
2018-05-26T03:14:36.527Z,12.10
2018-05-26T03:17:04.837Z,13.77
2018-05-26T03:19:32.411Z,24.27
2018-05-26T03:21:59.954Z,13.87
2018-05-26T03:24:27.512Z,27.90
2018-05-26T03:26:55.050Z,18.43
2018-05-26T03:29:22.616Z,12.90
2018-05-26T03:31:50.923Z,25.50
2018-05-26T03:34:18.489Z,16.27
2018-05-26T03:36:46.022Z,13.60
2018-05-26T03:39:13.567Z,13.30
2018-05-26T03:41:41.124Z,14.50
2018-05-26T03:44:09.431Z,18.73
2018-05-26T03:46:37.003Z,12.77
2018-05-26T03:49:04.539Z,13.83
2018-05-26T03:51:32.104Z,13.93
2018-05-26T03:54:00.668Z,12.87
2018-05-26T03:56:40.067Z,12.90
2018-05-26T03:59:19.416Z,12.23
2018-05-26T04:01:47.741Z,9.87
2018-05-26T04:04:15.274Z,11.07
2018-05-26T04:06:43.606Z,12.80
2018-05-26T04:09:11.139Z,12.40
2018-05-26T04:11:39.832Z,15.40
2018-05-26T04:14:07.365Z,10.80
2018-05-26T04:16:34.922Z,15.47
2018-05-26T04:19:02.457Z,93.20
2018-05-26T04:21:30.785Z,56.70
2018-05-26T04:23:58.958Z,106.00
2018-05-26T04:26:27.077Z,119.00
2018-05-26T04:28:55.396Z,61.70
2018-05-26T04:31:22.950Z,31.97
2018-05-26T04:33:50.486Z,32.77
2018-05-26T04:36:18.805Z,14.70
2018-05-26T04:38:46.342Z,10.73
2018-05-26T04:41:13.905Z,12.37
2018-05-26T04:43:41.450Z,10.40
2018-05-26T04:46:09.779Z,10.20
2018-05-26T04:48:37.326Z,11.00
2018-05-26T04:51:06.348Z,10.47
2018-05-26T04:53:33.894Z,12.53
2018-05-26T04:56:01.431Z,9.77
2018-05-26T04:58:29.001Z,11.73
2018-05-26T05:00:56.547Z,11.60
2018-05-26T05:03:24.120Z,23.80
2018-05-26T05:05:51.654Z,29.30
2018-05-26T05:08:19.219Z,16.33
2018-05-26T05:10:48.435Z,15.20
2018-05-26T05:13:15.994Z,14.73
2018-05-26T05:15:43.534Z,34.83
2018-05-26T05:18:11.096Z,19.97
2018-05-26T05:20:38.639Z,23.87
2018-05-26T05:23:06.974Z,24.20
2018-05-26T05:25:34.515Z,21.23
2018-05-26T05:28:02.080Z,22.03
2018-05-26T05:30:29.618Z,33.57
2018-05-26T05:32:57.178Z,15.33
2018-05-26T05:35:24.722Z,16.83
2018-05-26T05:37:53.061Z,20.30
2018-05-26T05:40:20.613Z,16.53
2018-05-26T05:42:48.187Z,15.10
2018-05-26T05:45:15.732Z,15.63
2018-05-26T05:47:43.292Z,19.87
2018-05-26T05:50:10.842Z,19.50
2018-05-26T05:52:38.419Z,17.20
2018-05-26T05:55:05.964Z,16.63
2018-05-26T05:57:33.526Z,18.80
2018-05-26T06:00:01.079Z,16.03
2018-05-26T06:02:28.648Z,17.10
2018-05-26T06:04:56.190Z,17.83
2018-05-26T06:07:23.747Z,14.00
2018-05-26T06:09:51.285Z,18.93
2018-05-26T06:12:18.855Z,15.07
2018-05-26T06:14:46.412Z,17.43
2018-05-26T06:17:13.994Z,15.80
2018-05-26T06:19:41.541Z,18.53
2018-05-26T06:22:09.111Z,22.33
2018-05-26T06:24:36.670Z,17.10
2018-05-26T06:27:04.234Z,19.37
2018-05-26T06:29:31.780Z,20.17
2018-05-26T06:31:59.358Z,16.77
2018-05-26T06:34:26.914Z,21.20
2018-05-26T06:36:54.483Z,19.17
2018-05-26T06:39:22.805Z,18.87
2018-05-26T06:41:51.140Z,16.97
2018-05-26T06:44:18.683Z,16.90
2018-05-26T06:46:46.261Z,16.63
2018-05-26T06:49:13.796Z,17.57
2018-05-26T06:51:41.362Z,18.50
2018-05-26T06:54:08.925Z,21.90
2018-05-26T06:56:36.484Z,17.50
2018-05-26T06:59:04.041Z,18.40
2018-05-26T07:01:31.588Z,14.90
2018-05-26T07:04:00.054Z,15.80
2018-05-26T07:06:28.373Z,15.93
2018-05-26T07:08:55.933Z,16.07
2018-05-26T07:11:23.487Z,16.50
2018-05-26T07:13:51.692Z,15.37
2018-05-26T07:16:19.246Z,14.47
2018-05-26T07:18:46.814Z,15.33
2018-05-26T07:21:14.360Z,18.20
2018-05-26T07:23:41.922Z,18.50
2018-05-26T07:26:09.469Z,14.73
2018-05-26T07:28:37.031Z,15.87
2018-05-26T07:31:04.586Z,17.27
2018-05-26T07:33:32.155Z,18.70
2018-05-26T07:35:59.690Z,15.50
2018-05-26T07:38:27.590Z,17.83
2018-05-26T07:40:55.141Z,17.70
2018-05-26T07:43:22.698Z,17.10
2018-05-26T07:45:50.240Z,18.80
2018-05-26T07:48:17.809Z,16.27
2018-05-26T07:50:45.359Z,13.70
2018-05-26T07:53:12.955Z,16.03
2018-05-26T07:55:40.514Z,13.10
2018-05-26T07:58:08.073Z,18.20
2018-05-26T08:00:35.648Z,15.00
2018-05-26T08:03:03.194Z,16.20
2018-05-26T08:05:30.748Z,15.80
2018-05-26T08:07:58.322Z,18.70
2018-05-26T08:10:25.881Z,16.33
2018-05-26T08:12:53.446Z,14.17
2018-05-26T08:15:20.993Z,14.87
2018-05-26T08:17:48.566Z,16.30
2018-05-26T08:20:16.106Z,14.63
2018-05-26T08:22:43.674Z,14.37
2018-05-26T08:25:11.226Z,14.73
2018-05-26T08:27:38.781Z,13.83
2018-05-26T08:30:06.333Z,14.17
2018-05-26T08:32:33.906Z,13.37
2018-05-26T08:35:01.448Z,12.57
2018-05-26T08:37:29.014Z,9.93
2018-05-26T08:39:56.555Z,13.97
2018-05-26T08:42:24.119Z,11.97
2018-05-26T08:44:51.663Z,10.70
2018-05-26T08:47:20.082Z,11.93
2018-05-26T08:49:47.636Z,14.53
2018-05-26T08:52:15.209Z,14.30
2018-05-26T08:54:42.753Z,10.90
2018-05-26T08:57:10.298Z,9.67
2018-05-26T08:59:37.859Z,12.10
2018-05-26T09:02:05.404Z,7.97
2018-05-26T09:04:33.733Z,14.00
2018-05-26T09:07:01.384Z,10.40
2018-05-26T09:09:29.426Z,10.47
2018-05-26T09:11:57.816Z,10.60
2018-05-26T09:14:25.384Z,9.33
2018-05-26T09:16:52.941Z,10.03
2018-05-26T09:19:20.493Z,7.17
2018-05-26T09:21:48.076Z,8.33
2018-05-26T09:24:15.604Z,7.80
2018-05-26T09:26:43.142Z,7.77
2018-05-26T09:29:11.470Z,13.10
2018-05-26T09:31:39.016Z,11.67
2018-05-26T09:34:06.686Z,9.07
2018-05-26T09:36:34.240Z,8.80
2018-05-26T09:39:01.801Z,12.87
2018-05-26T09:41:29.335Z,8.73
2018-05-26T09:43:57.661Z,9.03
2018-05-26T09:46:25.199Z,7.90
2018-05-26T09:48:52.767Z,7.70
2018-05-26T09:51:20.302Z,7.97
2018-05-26T09:53:47.860Z,8.60
2018-05-26T09:56:15.397Z,9.30
2018-05-26T09:58:43.726Z,12.00
2018-05-26T10:01:11.268Z,11.97
2018-05-26T10:03:38.831Z,7.27
2018-05-26T10:06:06.374Z,9.00
2018-05-26T10:08:33.930Z,5.10
2018-05-26T10:11:02.235Z,5.10
2018-05-26T10:13:29.859Z,3.50
2018-05-26T10:15:57.342Z,4.90
2018-05-26T10:18:24.903Z,4.83
2018-05-26T10:20:53.200Z,5.57
2018-05-26T10:23:20.755Z,3.80
2018-05-26T10:25:48.291Z,4.10
2018-05-26T10:28:15.855Z,4.13
2018-05-26T10:30:43.390Z,4.47
2018-05-26T10:33:11.711Z,6.87
2018-05-26T10:35:39.277Z,6.23
2018-05-26T10:38:06.854Z,5.57
2018-05-26T10:40:34.403Z,9.37
2018-05-26T10:43:01.959Z,7.50
2018-05-26T10:45:39.451Z,7.03
2018-05-26T10:48:07.315Z,7.30
2018-05-26T10:50:34.855Z,7.97
2018-05-26T10:53:02.426Z,6.67
2018-05-26T10:55:29.965Z,11.17
2018-05-26T10:57:58.265Z,6.77
2018-05-26T11:00:25.815Z,4.60
2018-05-26T11:02:53.365Z,5.83
2018-05-26T11:05:20.932Z,4.90
2018-05-26T11:07:48.466Z,3.23
2018-05-26T11:10:16.791Z,4.33
2018-05-26T11:12:44.318Z,4.77
2018-05-26T11:15:12.729Z,5.13
2018-05-26T11:17:40.261Z,4.77
2018-05-26T11:20:07.835Z,7.33
2018-05-26T11:22:35.370Z,5.20
2018-05-26T11:25:03.695Z,3.97
2018-05-26T11:27:31.232Z,7.47
2018-05-26T11:29:58.791Z,7.00
2018-05-26T11:32:26.332Z,4.03
2018-05-26T11:34:54.662Z,3.63
2018-05-26T11:37:22.252Z,4.33
2018-05-26T11:39:49.779Z,3.97
2018-05-26T11:42:17.322Z,3.17
2018-05-26T11:44:44.872Z,3.53
2018-05-26T11:47:12.445Z,3.47
2018-05-26T11:49:40.010Z,2.87
2018-05-26T11:52:07.546Z,3.20
2018-05-26T11:54:35.103Z,10.57
2018-05-26T11:57:02.656Z,3.03
2018-05-26T11:59:31.056Z,3.47
2018-05-26T12:01:58.597Z,3.53
2018-05-26T12:04:26.166Z,2.93
2018-05-26T12:06:53.702Z,3.27
2018-05-26T12:09:22.038Z,2.87
2018-05-26T12:11:49.567Z,2.17
2018-05-26T12:14:17.128Z,2.83
2018-05-26T12:16:44.667Z,2.60
2018-05-26T12:19:14.333Z,2.07
2018-05-26T12:21:41.872Z,4.23
2018-05-26T12:24:09.420Z,8.93
2018-05-26T12:26:36.955Z,2.00
2018-05-26T12:29:05.281Z,2.87
2018-05-26T12:31:32.822Z,2.20
2018-05-26T12:34:01.410Z,2.80
2018-05-26T12:36:28.956Z,3.10
2018-05-26T12:38:56.520Z,2.13
2018-05-26T12:41:25.222Z,3.70
2018-05-26T12:43:52.795Z,3.20
2018-05-26T12:46:21.666Z,2.60
2018-05-26T12:48:49.231Z,2.90
2018-05-26T12:51:16.760Z,3.27
2018-05-26T12:53:45.059Z,4.53
2018-05-26T12:56:12.621Z,3.13
2018-05-26T12:58:40.165Z,1.93
2018-05-26T13:01:07.727Z,2.27
2018-05-26T13:03:35.266Z,6.63
2018-05-26T13:06:03.603Z,2.47
2018-05-26T13:08:31.138Z,2.13
2018-05-26T13:10:59.957Z,1.87
2018-05-26T13:13:27.487Z,2.60
2018-05-26T13:15:55.040Z,2.10
2018-05-26T13:18:22.907Z,3.20
2018-05-26T13:20:50.476Z,2.50
2018-05-26T13:23:18.012Z,3.03
2018-05-26T13:25:46.332Z,3.20
2018-05-26T13:28:13.869Z,4.20
2018-05-26T13:30:41.431Z,2.57
2018-05-26T13:33:08.967Z,3.20
2018-05-26T13:35:37.295Z,3.13
2018-05-26T13:38:04.832Z,2.23
2018-05-26T13:40:33.247Z,5.27
2018-05-26T13:43:00.786Z,2.23
2018-05-26T13:45:28.355Z,2.20
2018-05-26T13:47:56.645Z,5.33
2018-05-26T13:50:24.207Z,4.50
2018-05-26T13:52:51.801Z,2.93
2018-05-26T13:55:19.333Z,4.87
2018-05-26T13:57:46.869Z,3.37
2018-05-26T14:00:14.426Z,3.20
2018-05-26T14:02:41.961Z,4.57
2018-05-26T14:05:09.512Z,3.47
2018-05-26T14:07:37.805Z,7.00
2018-05-26T14:10:05.366Z,4.00
2018-05-26T14:12:39.720Z,3.53
2018-05-26T14:15:07.284Z,5.20
2018-05-26T14:17:34.814Z,3.73
2018-05-26T14:20:02.375Z,4.07
2018-05-26T14:22:29.915Z,3.70
2018-05-26T14:24:57.495Z,3.70
2018-05-26T14:27:25.039Z,4.70
2018-05-26T14:29:52.590Z,4.33
2018-05-26T14:32:20.878Z,5.53
2018-05-26T14:34:48.440Z,3.60
2018-05-26T14:37:15.983Z,2.90
2018-05-26T14:39:44.302Z,2.60
2018-05-26T14:42:11.897Z,2.80
2018-05-26T14:44:39.415Z,4.20
2018-05-26T14:47:06.956Z,2.20
2018-05-26T14:49:34.519Z,3.00
2018-05-26T14:52:02.065Z,3.37
2018-05-26T14:54:30.388Z,3.67
2018-05-26T14:56:57.929Z,2.63
2018-05-26T14:59:25.461Z,3.20
2018-05-26T15:01:53.777Z,2.97
2018-05-26T15:04:21.315Z,3.00
2018-05-26T15:06:48.880Z,3.23
2018-05-26T15:09:16.416Z,2.40
2018-05-26T15:11:44.739Z,3.90
2018-05-26T15:14:12.278Z,10.20
2018-05-26T15:16:39.833Z,3.57
2018-05-26T15:19:07.370Z,2.23
2018-05-26T15:21:35.695Z,3.03
2018-05-26T15:24:03.230Z,6.57
2018-05-26T15:26:30.789Z,2.43
2018-05-26T15:28:58.327Z,2.30
2018-05-26T15:31:26.655Z,3.00
2018-05-26T15:33:54.195Z,2.20
2018-05-26T15:36:21.758Z,2.47
2018-05-26T15:38:49.296Z,2.50
2018-05-26T15:41:16.861Z,2.70
2018-05-26T15:43:44.714Z,5.57
2018-05-26T15:46:13.038Z,2.83
2018-05-26T15:48:40.575Z,2.70
2018-05-26T15:51:08.134Z,2.97
2018-05-26T15:53:35.670Z,2.63
2018-05-26T15:56:03.990Z,4.93
2018-05-26T15:58:31.538Z,3.00
2018-05-26T16:00:59.106Z,5.37
2018-05-26T16:03:26.654Z,3.37
2018-05-26T16:05:54.214Z,2.70
2018-05-26T16:08:21.755Z,3.60
2018-05-26T16:10:50.082Z,2.40
2018-05-26T16:13:17.625Z,3.57
2018-05-26T16:15:45.187Z,4.50
2018-05-26T16:18:12.722Z,3.50
2018-05-26T16:20:40.287Z,3.53
2018-05-26T16:23:07.965Z,3.70
2018-05-26T16:25:35.527Z,3.70
2018-05-26T16:28:03.068Z,4.20
2018-05-26T16:30:30.639Z,4.17
2018-05-26T16:32:58.182Z,5.20
2018-05-26T16:35:25.742Z,3.50
2018-05-26T16:37:54.041Z,3.57
2018-05-26T16:40:21.598Z,5.33
2018-05-26T16:42:49.135Z,3.40
2018-05-26T16:45:17.460Z,4.87
2018-05-26T16:47:44.991Z,3.43
2018-05-26T16:50:12.543Z,3.07
2018-05-26T16:52:40.074Z,3.73
2018-05-26T16:55:08.402Z,4.77
2018-05-26T16:57:35.936Z,8.23
2018-05-26T17:00:03.474Z,3.20
2018-05-26T17:02:31.794Z,4.90
2018-05-26T17:04:59.335Z,3.47
2018-05-26T17:07:26.889Z,5.67
2018-05-26T17:09:55.891Z,7.73
2018-05-26T17:12:23.458Z,4.07
2018-05-26T17:14:50.990Z,4.37
2018-05-26T17:17:19.316Z,4.37
2018-05-26T17:19:46.852Z,5.67
2018-05-26T17:22:14.415Z,3.97
2018-05-26T17:24:41.954Z,4.70
2018-05-26T17:27:10.284Z,3.50
2018-05-26T17:29:37.816Z,5.30
2018-05-26T17:32:05.385Z,4.20
2018-05-26T17:34:35.359Z,3.60
2018-05-26T17:37:03.682Z,3.70
2018-05-26T17:39:31.215Z,4.70
2018-05-26T17:41:58.776Z,5.03
2018-05-26T17:44:26.317Z,7.50
2018-05-26T17:46:55.795Z,4.50
2018-05-26T17:49:23.340Z,4.83
2018-05-26T17:51:50.885Z,4.00
2018-05-26T17:54:18.427Z,5.10
2018-05-26T17:56:45.991Z,3.73
2018-05-26T17:59:13.530Z,7.47
2018-05-26T18:01:41.850Z,4.43
2018-05-26T18:04:09.404Z,4.40
2018-05-26T18:06:36.970Z,5.40
2018-05-26T18:09:04.507Z,4.53
2018-05-26T18:11:32.075Z,4.70
2018-05-26T18:13:59.606Z,3.83
2018-05-26T18:16:27.927Z,5.13
2018-05-26T18:18:56.146Z,4.00
2018-05-26T18:21:23.703Z,3.67
2018-05-26T18:23:51.246Z,4.60
2018-05-26T18:26:18.829Z,4.60
2018-05-26T18:28:47.135Z,5.73
2018-05-26T18:31:15.348Z,7.63
2018-05-26T18:33:42.881Z,10.00
2018-05-26T18:36:10.442Z,5.27
2018-05-26T18:38:37.983Z,4.37
2018-05-26T18:41:06.311Z,4.10
2018-05-26T18:43:33.841Z,5.17
2018-05-26T18:46:02.644Z,6.20
2018-05-26T18:48:30.177Z,5.60
2018-05-26T18:50:57.729Z,9.23
2018-05-26T18:53:26.174Z,7.70
2018-05-26T18:55:55.237Z,10.20
2018-05-26T18:58:22.775Z,8.20
2018-05-26T19:00:50.314Z,9.83
2018-05-26T19:03:18.652Z,23.87
2018-05-26T19:05:46.230Z,16.20
2018-05-26T19:08:13.801Z,12.00
2018-05-26T19:10:41.344Z,14.00
2018-05-26T19:13:08.909Z,21.70
2018-05-26T19:15:36.447Z,10.43
2018-05-26T19:18:04.018Z,10.33
2018-05-26T19:20:31.567Z,8.97
2018-05-26T19:22:59.127Z,14.70
2018-05-26T19:25:26.672Z,15.33
2018-05-26T19:27:54.243Z,21.93
2018-05-26T19:30:22.676Z,51.47
2018-05-26T19:32:51.202Z,37.50
2018-05-26T19:35:18.746Z,30.47
2018-05-26T19:37:46.312Z,24.00
2018-05-26T19:40:13.858Z,27.17
2018-05-26T19:42:41.426Z,23.07
2018-05-26T19:45:08.971Z,19.37
2018-05-26T19:47:36.538Z,38.97
2018-05-26T19:50:04.144Z,30.03
2018-05-26T19:52:31.662Z,20.07
2018-05-26T19:54:59.214Z,17.90
2018-05-26T19:57:26.777Z,9.97
2018-05-26T19:59:54.322Z,13.30
2018-05-26T20:02:23.173Z,11.23
2018-05-26T20:04:50.723Z,11.43
2018-05-26T20:07:18.372Z,13.80
2018-05-26T20:09:45.915Z,9.80
2018-05-26T20:12:14.251Z,12.43
2018-05-26T20:14:41.794Z,69.57
2018-05-26T20:17:09.367Z,134.37
2018-05-26T20:19:37.683Z,143.33
2018-05-26T20:22:05.254Z,98.33
2018-05-26T20:24:32.794Z,92.90
2018-05-26T20:27:01.127Z,78.27
2018-05-26T20:29:28.684Z,49.90
2018-05-26T20:31:56.238Z,35.00
2018-05-26T20:34:23.779Z,23.23
2018-05-26T20:36:51.345Z,50.20
2018-05-26T20:39:18.898Z,43.03
2018-05-26T20:41:46.471Z,225.27
2018-05-26T20:44:14.010Z,68.83
2018-05-26T20:46:41.572Z,24.97
2018-05-26T20:49:09.117Z,18.83
2018-05-26T20:51:37.462Z,21.80
2018-05-26T20:54:05.090Z,16.93
2018-05-26T20:56:32.657Z,17.97
2018-05-26T20:59:00.197Z,20.73
2018-05-26T21:01:27.745Z,18.03
2018-05-26T21:03:55.311Z,20.23
2018-05-26T21:06:22.861Z,22.43
2018-05-26T21:08:51.191Z,18.30
2018-05-26T21:11:18.737Z,25.40
2018-05-26T21:13:46.302Z,15.60
2018-05-26T21:16:13.846Z,21.40
2018-05-26T21:18:41.415Z,38.50
2018-05-26T21:21:08.954Z,40.57
2018-05-26T21:23:36.534Z,35.30
2018-05-26T21:26:04.083Z,66.00
2018-05-26T21:28:31.662Z,33.77
2018-05-26T21:30:59.197Z,87.97
2018-05-26T21:33:26.766Z,67.40
2018-05-26T21:35:54.311Z,35.60
2018-05-26T21:38:21.878Z,35.03
2018-05-26T21:40:49.425Z,43.90
2018-05-26T21:43:16.990Z,77.33
2018-05-26T21:45:44.538Z,59.50
2018-05-26T21:48:12.862Z,25.50
2018-05-26T21:50:40.401Z,25.77
2018-05-26T21:53:07.970Z,30.40
2018-05-26T21:55:35.521Z,65.77
2018-05-26T21:58:03.645Z,41.90
2018-05-26T22:00:31.159Z,20.40
2018-05-26T22:02:58.732Z,15.90
2018-05-26T22:05:26.269Z,17.53
2018-05-26T22:07:53.845Z,28.23
2018-05-26T22:10:21.395Z,33.17
2018-05-26T22:12:48.954Z,34.73
2018-05-26T22:15:16.504Z,30.27
2018-05-26T22:17:44.076Z,29.83
2018-05-26T22:20:11.615Z,27.70
2018-05-26T22:22:39.943Z,46.73
2018-05-26T22:25:07.488Z,31.70
2018-05-26T22:27:35.055Z,26.53
2018-05-26T22:30:02.598Z,45.50
2018-05-26T22:32:30.163Z,30.80
2018-05-26T22:34:57.701Z,20.33
2018-05-26T22:37:25.259Z,47.03
2018-05-26T22:39:52.810Z,16.43
2018-05-26T22:42:21.138Z,39.70
2018-05-26T22:44:48.677Z,38.60
2018-05-26T22:47:16.231Z,67.10
2018-05-26T22:49:44.538Z,46.00
2018-05-26T22:52:12.107Z,40.20
2018-05-26T22:54:39.662Z,23.60
2018-05-26T22:57:07.214Z,24.93
2018-05-26T22:59:34.782Z,39.90
2018-05-26T23:02:03.337Z,46.53
2018-05-26T23:04:30.915Z,44.50
2018-05-26T23:06:58.473Z,39.73
2018-05-26T23:09:26.044Z,24.67
2018-05-26T23:11:53.580Z,29.63
2018-05-26T23:14:21.138Z,25.00
2018-05-26T23:16:48.682Z,30.90
2018-05-26T23:19:16.249Z,28.20
2018-05-26T23:21:46.635Z,39.03
2018-05-26T23:24:14.198Z,32.57
2018-05-26T23:26:42.517Z,35.70
2018-05-26T23:29:10.079Z,37.67
2018-05-26T23:31:37.617Z,41.67
2018-05-26T23:34:05.943Z,31.53
2018-05-26T23:36:33.487Z,26.10
2018-05-26T23:39:01.062Z,23.90
2018-05-26T23:41:28.619Z,21.10
2018-05-26T23:43:56.183Z,17.03
2018-05-26T23:46:23.726Z,18.37
2018-05-26T23:48:51.291Z,14.03
2018-05-26T23:51:18.837Z,23.10
2018-05-26T23:53:46.407Z,28.00
2018-05-26T23:56:13.963Z,34.10
2018-05-26T23:58:41.528Z,51.97
